Terminal Aerodrome Forecast
Issued by NWS

Home | Current Version | Previous Version | Text Only | Print | Product List | Glossary On
Versions: 1 2 3 4 5 6 7 8 9 10 11 12 13
000
FTUS44 KLZK 310500
TAFBPK
TAF
KBPK 310540Z 3106/0106 13005KT P6SM OVC250
     FM310700 13003KT P6SM OVC120
     FM311500 14006KT P6SM BKN080 OVC100
     FM312100 14010KT P6SM OVC080=

USA.gov is the U.S. government's official web portal to all federal, state and local government web resources and services.